createdAt,value
2018-09-12T00:00:25.410Z,15.60
2018-09-12T00:05:28.974Z,15.50
2018-09-12T00:10:32.507Z,15.30
2018-09-12T00:15:36.354Z,15.70
2018-09-12T00:20:39.952Z,15.40
2018-09-12T00:25:43.507Z,15.10
2018-09-12T00:30:47.032Z,15.10
2018-09-12T00:35:50.654Z,15.10
2018-09-12T00:40:54.266Z,15.00
2018-09-12T00:45:57.916Z,14.70
2018-09-12T00:51:02.378Z,14.70
2018-09-12T00:56:06.110Z,15.40
2018-09-12T01:01:09.694Z,15.10
2018-09-12T01:06:13.338Z,15.00
2018-09-12T01:11:16.967Z,14.80
2018-09-12T01:16:21.578Z,15.00
2018-09-12T01:21:25.156Z,14.60
2018-09-12T01:26:29.862Z,14.40
2018-09-12T01:31:33.452Z,14.10
2018-09-12T01:36:37.036Z,14.00
2018-09-12T01:41:40.587Z,14.10
2018-09-12T01:46:44.254Z,14.20
2018-09-12T01:51:49.535Z,14.20
2018-09-12T01:56:55.191Z,14.10
2018-09-12T02:01:58.722Z,13.90
2018-09-12T02:07:02.254Z,14.00
2018-09-12T02:12:05.826Z,13.90
2018-09-12T02:17:09.354Z,14.00
2018-09-12T02:22:12.986Z,14.00
2018-09-12T02:27:16.530Z,13.80
2018-09-12T02:32:21.167Z,13.60
2018-09-12T02:37:24.920Z,13.50
2018-09-12T02:42:29.623Z,13.90
2018-09-12T02:47:36.994Z,13.80
2018-09-12T02:52:41.636Z,13.60
2018-09-12T02:57:45.283Z,13.30
2018-09-12T03:02:48.950Z,13.20
2018-09-12T03:07:52.645Z,13.90
2018-09-12T03:12:56.206Z,13.40
2018-09-12T03:17:59.729Z,13.10
2018-09-12T03:23:03.263Z,12.90
2018-09-12T03:28:06.886Z,13.00
2018-09-12T03:33:10.617Z,13.50
2018-09-12T03:38:14.167Z,13.10
2018-09-12T03:43:18.755Z,12.80
2018-09-12T03:48:22.320Z,12.70
2018-09-12T03:53:26.038Z,12.80
2018-09-12T03:58:29.711Z,12.80
2018-09-12T04:03:34.399Z,12.90
2018-09-12T04:08:37.981Z,12.70
2018-09-12T04:13:41.499Z,12.90
2018-09-12T04:18:45.282Z,12.70
2018-09-12T04:23:48.926Z,12.70
2018-09-12T04:28:52.492Z,12.60
2018-09-12T04:33:56.135Z,12.50
2018-09-12T04:38:59.689Z,12.30
2018-09-12T04:44:03.272Z,12.90
2018-09-12T04:49:07.410Z,13.10
2018-09-12T04:54:11.121Z,12.70
2018-09-12T04:59:14.823Z,11.70
2018-09-12T05:04:18.434Z,12.30
2018-09-12T05:09:24.039Z,12.70
2018-09-12T05:14:27.619Z,12.70
2018-09-12T05:19:31.282Z,12.40
2018-09-12T05:24:34.930Z,12.40
2018-09-12T05:29:38.518Z,12.70
2018-09-12T05:34:42.095Z,12.50
2018-09-12T05:39:45.694Z,12.50
2018-09-12T05:44:49.268Z,12.50
2018-09-12T05:49:53.071Z,12.50
2018-09-12T05:54:56.645Z,12.60
2018-09-12T06:00:00.236Z,12.80
2018-09-12T06:05:03.957Z,12.90
2018-09-12T06:10:07.554Z,13.10
2018-09-12T06:15:12.644Z,13.30
2018-09-12T06:20:16.286Z,13.40
2018-09-12T06:25:19.851Z,13.50
2018-09-12T06:30:23.615Z,13.60
2018-09-12T06:35:27.191Z,13.80
2018-09-12T06:40:30.763Z,14.00
2018-09-12T06:45:34.422Z,14.40
2018-09-12T06:50:39.198Z,14.60
2018-09-12T06:55:42.893Z,14.90
2018-09-12T07:00:46.578Z,15.20
2018-09-12T07:05:50.244Z,15.80
2018-09-12T07:10:53.881Z,16.00
2018-09-12T07:15:57.462Z,16.40
2018-09-12T07:21:02.079Z,16.70
2018-09-12T07:26:05.774Z,16.90
2018-09-12T07:31:09.388Z,17.10
2018-09-12T07:36:13.126Z,17.40
2018-09-12T07:41:16.812Z,17.60
2018-09-12T07:46:20.371Z,17.80
2018-09-12T07:51:25.090Z,18.20
2018-09-12T07:56:28.721Z,20.70
2018-09-12T08:01:32.362Z,23.50
2018-09-12T08:06:35.898Z,24.60
2018-09-12T08:11:40.661Z,25.20
2018-09-12T08:16:44.221Z,26.80
2018-09-12T08:21:47.898Z,26.70
2018-09-12T08:26:51.525Z,26.60
2018-09-12T08:31:57.082Z,27.30
2018-09-12T08:37:00.723Z,28.10
2018-09-12T08:42:04.400Z,27.40
2018-09-12T08:47:09.958Z,26.60
2018-09-12T08:52:17.035Z,27.70
2018-09-12T08:57:20.630Z,28.60
2018-09-12T09:02:24.183Z,28.50
2018-09-12T09:07:27.695Z,29.20
2018-09-12T09:12:31.685Z,29.90
2018-09-12T09:17:35.267Z,29.70
2018-09-12T09:22:39.214Z,29.80
2018-09-12T09:27:43.639Z,30.20
2018-09-12T09:32:47.292Z,30.40
2018-09-12T09:37:50.774Z,30.80
2018-09-12T09:42:54.382Z,30.50
2018-09-12T09:47:58.078Z,31.00
2018-09-12T09:53:01.722Z,30.30
2018-09-12T09:58:05.538Z,29.90
2018-09-12T10:03:15.363Z,30.60
2018-09-12T10:08:24.073Z,30.70
2018-09-12T10:13:27.665Z,30.90
2018-09-12T10:18:31.234Z,31.50
2018-09-12T10:23:35.832Z,31.80
2018-09-12T10:28:39.381Z,32.90
2018-09-12T10:33:43.791Z,34.30
2018-09-12T10:38:47.331Z,35.60
2018-09-12T10:43:51.009Z,35.80
2018-09-12T10:48:54.558Z,36.60
2018-09-12T10:53:58.526Z,35.00
2018-09-12T10:59:02.211Z,35.30
2018-09-12T11:04:05.811Z,34.10
2018-09-12T11:09:11.643Z,30.90
2018-09-12T11:14:15.199Z,28.50
2018-09-12T11:19:18.807Z,27.10
2018-09-12T11:24:22.363Z,28.50
2018-09-12T11:29:25.911Z,28.50
2018-09-12T11:34:29.587Z,27.90
2018-09-12T11:39:33.379Z,27.40
2018-09-12T11:44:37.019Z,28.20
2018-09-12T11:49:40.961Z,28.40
2018-09-12T11:54:44.654Z,28.70
2018-09-12T11:59:48.181Z,28.10
2018-09-12T12:04:51.746Z,27.70
2018-09-12T12:09:55.698Z,27.60
2018-09-12T12:14:59.202Z,26.60
2018-09-12T12:20:02.733Z,26.70
2018-09-12T12:25:06.536Z,26.20
2018-09-12T12:30:11.141Z,26.40
2018-09-12T12:35:20.633Z,26.60
2018-09-12T12:40:24.322Z,26.40
2018-09-12T12:45:28.006Z,27.80
2018-09-12T12:50:34.838Z,27.90
2018-09-12T12:55:38.723Z,27.70
2018-09-12T13:00:42.311Z,26.60
2018-09-12T13:05:46.062Z,27.20
2018-09-12T13:10:49.500Z,26.30
2018-09-12T13:16:02.918Z,24.80
2018-09-12T13:21:06.683Z,24.60
2018-09-12T13:26:14.317Z,24.90
2018-09-12T13:31:18.226Z,24.70
2018-09-12T13:36:25.025Z,24.20
2018-09-12T13:41:29.897Z,24.00
2018-09-12T13:46:34.639Z,23.80
2018-09-12T13:51:38.350Z,23.70
2018-09-12T13:56:59.566Z,23.90
2018-09-12T14:02:03.145Z,24.10
2018-09-12T14:07:14.153Z,24.60
2018-09-12T14:12:30.110Z,24.30
2018-09-12T14:17:33.726Z,24.60
2018-09-12T14:22:41.359Z,25.00
2018-09-12T14:27:44.994Z,24.40
2018-09-12T14:32:48.602Z,24.00
2018-09-12T14:37:52.151Z,24.10
2018-09-12T14:42:55.837Z,24.00
2018-09-12T14:47:59.777Z,24.40
2018-09-12T14:53:03.374Z,23.90
2018-09-12T14:58:07.304Z,23.90
2018-09-12T15:03:11.942Z,23.60
2018-09-12T15:08:15.502Z,23.30
2018-09-12T15:13:19.118Z,23.40
2018-09-12T15:18:25.981Z,23.80
2018-09-12T15:23:40.756Z,23.80
2018-09-12T15:28:44.411Z,23.60
2018-09-12T15:33:50.091Z,23.20
2018-09-12T15:38:58.805Z,23.20
2018-09-12T15:44:02.936Z,23.20
2018-09-12T15:49:06.904Z,23.40
2018-09-12T15:54:10.602Z,23.60
2018-09-12T15:59:14.342Z,23.40
2018-09-12T16:04:18.014Z,23.30
2018-09-12T16:09:21.818Z,23.10
2018-09-12T16:14:25.510Z,23.00
2018-09-12T16:19:29.035Z,23.00
2018-09-12T16:24:32.778Z,23.10
2018-09-12T16:29:36.359Z,23.10
2018-09-12T16:34:41.178Z,23.10
2018-09-12T16:39:44.778Z,22.90
2018-09-12T16:44:51.949Z,22.70
2018-09-12T16:49:55.574Z,22.50
2018-09-12T16:54:59.165Z,22.40
2018-09-12T17:00:03.387Z,22.30
2018-09-12T17:05:08.054Z,22.30
2018-09-12T17:10:11.726Z,22.20
2018-09-12T17:15:15.293Z,22.10
2018-09-12T17:20:22.421Z,22.10
2018-09-12T17:30:40.678Z,22.00
2018-09-12T17:35:44.315Z,21.80
2018-09-12T17:40:47.951Z,21.80
2018-09-12T17:45:51.745Z,21.70
2018-09-12T17:50:56.430Z,21.70
2018-09-12T17:56:00.099Z,21.60
2018-09-12T18:01:04.410Z,21.50
2018-09-12T18:06:08.331Z,21.50
2018-09-12T18:11:12.166Z,21.40
2018-09-12T18:16:15.982Z,21.40
2018-09-12T18:21:19.574Z,21.30
2018-09-12T18:26:24.384Z,21.30
2018-09-12T18:31:28.203Z,21.20
2018-09-12T18:36:33.064Z,21.20
2018-09-12T18:41:36.798Z,21.10
2018-09-12T18:46:40.487Z,21.10
2018-09-12T18:51:44.141Z,21.50
2018-09-12T18:56:47.930Z,20.90
2018-09-12T19:01:51.869Z,20.90
2018-09-12T19:06:55.669Z,20.90
2018-09-12T19:12:00.175Z,20.80
2018-09-12T19:17:03.934Z,20.70
2018-09-12T19:22:07.539Z,20.70
2018-09-12T19:27:11.191Z,20.60
2018-09-12T19:32:14.727Z,20.60
2018-09-12T19:37:19.794Z,20.50
2018-09-12T19:42:23.894Z,20.50
2018-09-12T19:47:30.558Z,20.40
2018-09-12T19:52:34.267Z,20.30
2018-09-12T19:57:38.169Z,20.20
2018-09-12T20:02:42.986Z,20.20
2018-09-12T20:07:52.763Z,20.20
2018-09-12T20:12:56.395Z,20.20
2018-09-12T20:18:00.176Z,20.10
2018-09-12T20:23:04.025Z,20.10
2018-09-12T20:28:07.564Z,20.10
2018-09-12T20:33:11.199Z,20.00
2018-09-12T20:38:14.809Z,19.80
2018-09-12T20:43:18.589Z,19.50
2018-09-12T20:48:23.715Z,19.40
2018-09-12T20:53:27.675Z,19.40
2018-09-12T20:58:31.194Z,19.20
2018-09-12T21:03:34.938Z,19.10
2018-09-12T21:08:38.637Z,19.20
2018-09-12T21:13:42.309Z,19.20
2018-09-12T21:18:45.857Z,19.00
2018-09-12T21:23:49.448Z,19.20
2018-09-12T21:28:52.977Z,19.20
2018-09-12T21:33:56.536Z,18.80
2018-09-12T21:39:00.070Z,18.90
2018-09-12T21:44:03.646Z,19.20
2018-09-12T21:49:07.171Z,18.90
2018-09-12T21:54:10.693Z,18.70
2018-09-12T21:59:14.229Z,18.90
2018-09-12T22:04:18.228Z,18.60
2018-09-12T22:09:21.773Z,18.60
2018-09-12T22:14:25.426Z,18.30
2018-09-12T22:19:30.053Z,18.30
2018-09-12T22:24:33.621Z,18.10
2018-09-12T22:29:37.245Z,18.40
2018-09-12T22:34:41.041Z,18.30
2018-09-12T22:39:44.612Z,18.50
2018-09-12T22:44:48.175Z,18.40
2018-09-12T22:49:51.805Z,18.40
2018-09-12T22:54:55.368Z,18.20
2018-09-12T22:59:59.026Z,18.10
2018-09-12T23:05:02.670Z,18.10
2018-09-12T23:10:07.359Z,18.20
2018-09-12T23:15:11.355Z,18.20
2018-09-12T23:20:16.018Z,17.80
2018-09-12T23:25:19.659Z,17.80
2018-09-12T23:30:24.314Z,17.90
2018-09-12T23:35:27.910Z,18.20
2018-09-12T23:40:31.518Z,18.20
2018-09-12T23:45:35.111Z,17.90
2018-09-12T23:50:38.811Z,17.80
2018-09-12T23:55:42.370Z,17.90
